Time;durP1;ratioP1;P1;durP2;ratioP2;P2;SDS_P1;SDS_P2;PMS_P1;PMS_P2;Temp;Humidity;BMP_temperature;BMP_pressure;BME280_temperature;BME280_humidity;BME280_pressure;Samples;Min_cycle;Max_cycle;Signal;HPM_P1;HPM_P2
2023/03/22 00:00:50;;;;;;;;;;;;;;;;;;5048352;28;20052;-64
2023/03/22 00:03:16;;;;;;;19.47;9.70;;;;;;;;;;5048561;28;19950;-64
2023/03/22 00:05:43;;;;;;;17.83;10.03;;;;;;;;;;5047836;28;20403;-64
2023/03/22 00:08:09;;;;;;;15.20;9.27;;;;;;;;;;5047815;28;20052;-64
2023/03/22 00:10:37;;;;;;;15.23;9.53;;;;;;;;;;5046405;28;20270;-64
2023/03/22 00:13:04;;;;;;;14.70;9.43;;;;;;;;;;5048332;28;20048;-64
2023/03/22 00:15:30;;;;;;;17.03;8.80;;;;;;;;;;5048395;28;20049;-64
2023/03/22 00:17:57;;;;;;;16.33;7.90;;;;;;;;;;5051254;28;20052;-64
2023/03/22 00:20:29;;;;;;;15.90;8.23;;;;;;;;;;5052068;28;20173;-64
2023/03/22 00:22:55;;;;;;;18.07;7.53;;;;;;;;;;5051081;28;20057;-64
2023/03/22 00:25:21;;;;;;;14.00;7.87;;;;;;;;;;5051344;28;20048;-64
2023/03/22 00:27:47;;;;;;;13.37;6.43;;;;;;;;;;5051724;28;20067;-64
2023/03/22 00:30:14;;;;;;;15.50;6.87;;;;;;;;;;5051098;28;20156;-64
2023/03/22 00:32:41;;;;;;;16.00;7.13;;;;;;;;;;5051733;28;20041;-64
2023/03/22 00:35:08;;;;;;;12.63;5.80;;;;;;;;;;5051913;28;20049;-64
2023/03/22 00:37:37;;;;;;;15.80;6.17;;;;;;;;;;5050995;28;20044;-62
2023/03/22 00:40:10;;;;;;;13.37;6.30;;;;;;;;;;5031903;28;20485;-62
2023/03/22 00:42:37;;;;;;;13.88;6.60;;;;;;;;;;5031183;28;20061;-62
2023/03/22 00:45:03;;;;;;;12.47;6.33;;;;;;;;;;5031291;28;20045;-62
2023/03/22 00:47:29;;;;;;;13.43;6.87;;;;;;;;;;5031728;28;20092;-62
2023/03/22 00:49:56;;;;;;;13.63;7.43;;;;;;;;;;5031279;28;20056;-62
2023/03/22 00:52:22;;;;;;;14.50;6.40;;;;;;;;;;5048528;28;20107;-62
2023/03/22 00:54:48;;;;;;;12.17;6.37;;;;;;;;;;5050563;28;20453;-62
2023/03/22 00:57:14;;;;;;;12.10;6.63;;;;;;;;;;5037557;28;20045;-62
2023/03/22 00:59:41;;;;;;;11.70;7.03;;;;;;;;;;5030887;28;20183;-62
2023/03/22 01:02:08;;;;;;;13.43;6.77;;;;;;;;;;5030930;28;20503;-62
2023/03/22 01:04:35;;;;;;;13.03;6.00;;;;;;;;;;5031446;28;20496;-62
2023/03/22 01:07:04;;;;;;;13.53;5.57;;;;;;;;;;5049295;28;20129;-62
2023/03/22 01:09:32;;;;;;;12.40;5.87;;;;;;;;;;5050471;28;20063;-62
2023/03/22 01:11:59;;;;;;;13.73;6.00;;;;;;;;;;5051572;28;20052;-62
2023/03/22 01:14:25;;;;;;;13.47;5.27;;;;;;;;;;5051251;28;20074;-62
2023/03/22 01:16:56;;;;;;;10.27;4.97;;;;;;;;;;5051317;28;20049;-64
2023/03/22 01:19:22;;;;;;;12.83;5.80;;;;;;;;;;5051371;28;20056;-64
2023/03/22 01:21:48;;;;;;;15.47;5.73;;;;;;;;;;5050847;28;20041;-64
2023/03/22 01:24:15;;;;;;;11.23;5.93;;;;;;;;;;5049823;28;20102;-64
2023/03/22 01:26:41;;;;;;;13.50;5.60;;;;;;;;;;5050474;28;20069;-64
2023/03/22 01:29:07;;;;;;;11.93;5.00;;;;;;;;;;5050047;28;20063;-64
2023/03/22 01:31:33;;;;;;;20.47;5.83;;;;;;;;;;5050412;28;20565;-64
2023/03/22 01:33:59;;;;;;;11.53;5.10;;;;;;;;;;5049756;28;20088;-64
2023/03/22 01:36:25;;;;;;;16.83;4.57;;;;;;;;;;5049736;28;20080;-64
2023/03/22 01:38:51;;;;;;;12.07;5.40;;;;;;;;;;5050999;28;20103;-64
2023/03/22 01:41:17;;;;;;;12.80;4.67;;;;;;;;;;5050967;28;20049;-64
2023/03/22 01:43:43;;;;;;;16.70;4.77;;;;;;;;;;5050124;28;20045;-62
2023/03/22 01:46:09;;;;;;;11.53;4.93;;;;;;;;;;5050103;28;20041;-62
2023/03/22 01:48:40;;;;;;;11.20;4.93;;;;;;;;;;5049339;28;20384;-64
2023/03/22 01:51:09;;;;;;;11.60;4.60;;;;;;;;;;5050442;28;20775;-64
2023/03/22 01:53:38;;;;;;;10.63;4.20;;;;;;;;;;5050392;28;20542;-65
2023/03/22 01:56:05;;;;;;;15.40;5.07;;;;;;;;;;5050190;28;20747;-64
2023/03/22 01:58:32;;;;;;;15.37;4.10;;;;;;;;;;5049317;28;20044;-63
2023/03/22 02:00:58;;;;;;;12.90;4.20;;;;;;;;;;5049885;28;20067;-62
2023/03/22 02:03:29;;;;;;;12.90;4.37;;;;;;;;;;5049569;28;20037;-63
2023/03/22 02:05:56;;;;;;;9.80;4.00;;;;;;;;;;5049328;28;20052;-64
2023/03/22 02:08:22;;;;;;;12.37;3.80;;;;;;;;;;5049984;28;20037;-63
2023/03/22 02:10:48;;;;;;;15.63;3.77;;;;;;;;;;5049253;28;20041;-64
2023/03/22 02:13:41;;;;;;;12.93;3.80;;;;;;;;;;5049557;28;20049;-64
2023/03/22 02:16:10;;;;;;;9.47;3.63;;;;;;;;;;5047721;28;20045;-64
2023/03/22 02:18:53;;;;;;;16.57;4.63;;;;;;;;;;5048874;28;20091;-64
2023/03/22 02:21:22;;;;;;;13.60;3.60;;;;;;;;;;5048744;28;20057;-64
2023/03/22 02:24:06;;;;;;;15.70;3.87;;;;;;;;;;5049769;28;20131;-63
2023/03/22 02:26:40;;;;;;;9.30;3.70;;;;;;;;;;5049337;28;20094;-64
2023/03/22 02:29:25;;;;;;;11.10;3.93;;;;;;;;;;5048365;28;20430;-63
2023/03/22 02:31:58;;;;;;;14.03;3.63;;;;;;;;;;5048469;28;20041;-64
2023/03/22 02:34:36;;;;;;;12.05;4.25;;;;;;;;;;5049682;28;20052;-64
2023/03/22 02:37:17;;;;;;;11.80;4.30;;;;;;;;;;5049555;28;20053;-64
2023/03/22 02:40:04;;;;;;;17.90;4.27;;;;;;;;;;5048864;28;20564;-64
2023/03/22 02:42:30;;;;;;;11.43;4.00;;;;;;;;;;5048716;28;20419;-64
2023/03/22 02:44:56;;;;;;;13.93;4.30;;;;;;;;;;5049248;28;20041;-63
2023/03/22 02:47:37;;;;;;;14.43;4.07;;;;;;;;;;5048832;28;20419;-65
2023/03/22 02:50:12;;;;;;;13.33;4.07;;;;;;;;;;5048997;28;20537;-64
2023/03/22 02:52:42;;;;;;;12.90;3.70;;;;;;;;;;5049135;28;20045;-63
2023/03/22 02:55:11;;;;;;;12.80;3.60;;;;;;;;;;5047947;28;20041;-63
2023/03/22 02:57:44;;;;;;;11.60;3.67;;;;;;;;;;5042614;28;20044;-63
2023/03/22 03:00:12;;;;;;;11.63;3.63;;;;;;;;;;5049306;28;20041;-64
2023/03/22 03:02:41;;;;;;;15.20;3.60;;;;;;;;;;5048850;28;20037;-64
2023/03/22 03:05:07;;;;;;;7.17;2.53;;;;;;;;;;5048463;28;20425;-64
2023/03/22 03:07:34;;;;;;;12.47;4.27;;;;;;;;;;5049430;28;20128;-64
2023/03/22 03:10:00;;;;;;;14.33;4.00;;;;;;;;;;5048968;28;20495;-63
2023/03/22 03:12:27;;;;;;;14.83;3.10;;;;;;;;;;5048786;28;20053;-63
2023/03/22 03:14:53;;;;;;;16.67;3.30;;;;;;;;;;5048991;28;20044;-63
2023/03/22 03:17:22;;;;;;;9.23;3.43;;;;;;;;;;5048533;28;20128;-63
2023/03/22 03:19:48;;;;;;;14.03;3.33;;;;;;;;;;5048536;28;20116;-63
2023/03/22 03:22:17;;;;;;;8.03;2.67;;;;;;;;;;5048736;28;20527;-63
2023/03/22 03:25:06;;;;;;;11.90;3.50;;;;;;;;;;5048223;28;20435;-63
2023/03/22 03:27:35;;;;;;;16.83;3.23;;;;;;;;;;5048050;28;20464;-63
2023/03/22 03:30:09;;;;;;;9.57;3.10;;;;;;;;;;5049045;28;20128;-64
2023/03/22 03:32:58;;;;;;;12.87;3.17;;;;;;;;;;5049082;28;20045;-63
2023/03/22 03:35:31;;;;;;;8.50;2.67;;;;;;;;;;5045236;28;20045;-63
2023/03/22 03:38:03;;;;;;;9.63;3.42;;;;;;;;;;5048751;28;20048;-63
2023/03/22 03:40:30;;;;;;;8.47;3.20;;;;;;;;;;5047559;28;20040;-64
2023/03/22 03:42:57;;;;;;;7.03;3.37;;;;;;;;;;5048846;28;20054;-64
2023/03/22 03:45:24;;;;;;;11.20;3.77;;;;;;;;;;5048353;28;20084;-63
2023/03/22 03:47:55;;;;;;;12.37;3.73;;;;;;;;;;5048201;28;20042;-64
2023/03/22 03:50:22;;;;;;;11.13;4.10;;;;;;;;;;5048820;28;20053;-63
2023/03/22 03:52:48;;;;;;;13.70;4.53;;;;;;;;;;5051418;28;20434;-63
2023/03/22 03:55:14;;;;;;;11.17;5.00;;;;;;;;;;5052499;28;20037;-63
2023/03/22 03:57:40;;;;;;;15.43;5.60;;;;;;;;;;5052706;28;20080;-63
2023/03/22 04:00:07;;;;;;;14.07;5.70;;;;;;;;;;5052447;28;20084;-63
2023/03/22 04:02:33;;;;;;;11.03;6.07;;;;;;;;;;5052423;28;20091;-63
2023/03/22 04:04:59;;;;;;;14.20;6.47;;;;;;;;;;5051635;28;20542;-63
2023/03/22 04:07:25;;;;;;;17.77;7.17;;;;;;;;;;5052219;28;20051;-64
2023/03/22 04:09:51;;;;;;;15.50;8.07;;;;;;;;;;5052141;28;20045;-63
2023/03/22 04:12:17;;;;;;;15.70;7.77;;;;;;;;;;5052182;28;20049;-63
2023/03/22 04:14:43;;;;;;;16.80;8.00;;;;;;;;;;5052069;28;20037;-63
2023/03/22 04:17:09;;;;;;;14.87;8.53;;;;;;;;;;5052201;28;20131;-63
2023/03/22 04:19:35;;;;;;;18.00;9.07;;;;;;;;;;5051795;28;20088;-63
2023/03/22 04:22:01;;;;;;;16.30;8.50;;;;;;;;;;5052595;28;20045;-63
2023/03/22 04:24:27;;;;;;;17.57;9.03;;;;;;;;;;5051959;28;20089;-63
2023/03/22 04:26:54;;;;;;;13.70;8.80;;;;;;;;;;5051881;28;20049;-63
2023/03/22 04:29:20;;;;;;;21.03;10.10;;;;;;;;;;5052146;28;20057;-64
2023/03/22 04:31:47;;;;;;;15.93;9.80;;;;;;;;;;5051055;28;20053;-63
2023/03/22 04:34:13;;;;;;;24.70;10.90;;;;;;;;;;5052099;28;20102;-63
2023/03/22 04:36:39;;;;;;;17.17;10.80;;;;;;;;;;5051642;28;20052;-63
2023/03/22 04:39:07;;;;;;;19.73;10.83;;;;;;;;;;5051841;28;20049;-63
2023/03/22 04:41:33;;;;;;;17.50;10.37;;;;;;;;;;5051628;28;20060;-63
2023/03/22 04:44:02;;;;;;;17.93;11.23;;;;;;;;;;5051923;28;20037;-63
2023/03/22 04:46:32;;;;;;;19.33;11.43;;;;;;;;;;5051221;28;20406;-63
2023/03/22 04:48:59;;;;;;;16.67;10.63;;;;;;;;;;5050973;28;20048;-63
2023/03/22 04:51:25;;;;;;;21.07;12.73;;;;;;;;;;5051856;28;20045;-63
2023/03/22 04:53:52;;;;;;;19.83;11.93;;;;;;;;;;5051427;28;20041;-63
2023/03/22 04:56:18;;;;;;;20.37;12.27;;;;;;;;;;5051806;28;20674;-63
2023/03/22 04:58:44;;;;;;;24.27;12.40;;;;;;;;;;5050096;28;20128;-63
2023/03/22 05:01:11;;;;;;;21.03;12.37;;;;;;;;;;5051367;28;20048;-63
2023/03/22 05:03:37;;;;;;;20.77;13.20;;;;;;;;;;5051346;28;20045;-63
2023/03/22 05:06:05;;;;;;;19.13;11.97;;;;;;;;;;5050761;28;20144;-63
2023/03/22 05:08:31;;;;;;;18.43;12.87;;;;;;;;;;5051578;28;20049;-63
2023/03/22 05:10:59;;;;;;;19.13;12.37;;;;;;;;;;5051484;28;20174;-63
2023/03/22 05:13:26;;;;;;;19.63;12.00;;;;;;;;;;5050408;28;20411;-63
2023/03/22 05:15:52;;;;;;;20.47;13.87;;;;;;;;;;5050117;28;20558;-63
2023/03/22 05:18:19;;;;;;;21.30;13.07;;;;;;;;;;5044588;28;20595;-64
2023/03/22 05:20:46;;;;;;;19.50;12.57;;;;;;;;;;5050987;28;20084;-63
2023/03/22 05:23:13;;;;;;;18.97;13.63;;;;;;;;;;5051331;28;20420;-63
2023/03/22 05:25:43;;;;;;;26.90;13.03;;;;;;;;;;5051038;28;20049;-63
2023/03/22 05:28:09;;;;;;;20.37;12.13;;;;;;;;;;5050795;28;20194;-63
2023/03/22 05:30:35;;;;;;;23.10;13.63;;;;;;;;;;5050817;28;20076;-63
2023/03/22 05:33:03;;;;;;;20.90;13.27;;;;;;;;;;5050117;28;20095;-63
2023/03/22 05:35:30;;;;;;;23.00;13.70;;;;;;;;;;5050275;28;20041;-63
2023/03/22 05:37:56;;;;;;;21.17;13.57;;;;;;;;;;5051001;28;20127;-63
2023/03/22 05:40:23;;;;;;;21.60;14.20;;;;;;;;;;5050216;28;20041;-63
2023/03/22 05:42:49;;;;;;;20.13;13.30;;;;;;;;;;5050027;28;20041;-63
2023/03/22 05:45:16;;;;;;;21.93;12.10;;;;;;;;;;5050681;28;20049;-63
2023/03/22 05:47:42;;;;;;;19.73;13.33;;;;;;;;;;5043907;28;20092;-63
2023/03/22 05:50:10;;;;;;;19.77;11.73;;;;;;;;;;5037595;28;20072;-63
2023/03/22 05:52:36;;;;;;;21.40;12.23;;;;;;;;;;5039330;28;20051;-63
2023/03/22 05:55:02;;;;;;;22.17;12.20;;;;;;;;;;5040086;28;20527;-63
2023/03/22 05:57:28;;;;;;;20.83;12.57;;;;;;;;;;5042951;28;21408;-63
2023/03/22 05:59:58;;;;;;;22.07;12.77;;;;;;;;;;5040908;28;20059;-63
2023/03/22 06:02:25;;;;;;;22.47;13.63;;;;;;;;;;5037094;28;20117;-63
2023/03/22 06:04:51;;;;;;;22.37;12.27;;;;;;;;;;5040459;28;20047;-61
2023/03/22 06:07:18;;;;;;;19.63;13.00;;;;;;;;;;5039012;28;20124;-61
2023/03/22 06:09:44;;;;;;;27.53;12.67;;;;;;;;;;5041020;28;20121;-61
2023/03/22 06:12:10;;;;;;;16.67;10.90;;;;;;;;;;5042024;28;20041;-61
2023/03/22 06:14:36;;;;;;;20.33;12.07;;;;;;;;;;5038082;28;20048;-61
2023/03/22 06:17:02;;;;;;;18.33;10.73;;;;;;;;;;5039373;28;20526;-61
2023/03/22 06:19:28;;;;;;;21.40;12.13;;;;;;;;;;5037113;28;20128;-61
2023/03/22 06:21:54;;;;;;;19.83;11.47;;;;;;;;;;5038908;28;20407;-61
2023/03/22 06:24:21;;;;;;;19.33;12.27;;;;;;;;;;5041459;28;20048;-61
2023/03/22 06:26:47;;;;;;;14.77;10.17;;;;;;;;;;5041109;28;20064;-61
2023/03/22 06:29:13;;;;;;;15.00;10.27;;;;;;;;;;5039574;28;20433;-61
2023/03/22 06:31:39;;;;;;;15.83;9.27;;;;;;;;;;5040596;28;20053;-61
2023/03/22 06:34:06;;;;;;;15.93;10.57;;;;;;;;;;5038112;28;20055;-63
2023/03/22 06:36:32;;;;;;;18.87;9.37;;;;;;;;;;5037142;28;20099;-63
2023/03/22 06:38:59;;;;;;;16.27;9.53;;;;;;;;;;5039198;28;20053;-63
2023/03/22 06:41:26;;;;;;;18.10;9.13;;;;;;;;;;5038655;28;20045;-63
2023/03/22 06:43:52;;;;;;;13.53;8.50;;;;;;;;;;5043972;28;20037;-62
2023/03/22 06:46:18;;;;;;;18.20;8.37;;;;;;;;;;5040207;28;20087;-61
2023/03/22 06:48:44;;;;;;;16.13;8.00;;;;;;;;;;5038720;28;20048;-62
2023/03/22 06:51:10;;;;;;;19.67;8.67;;;;;;;;;;5040031;28;20041;-61
2023/03/22 06:53:36;;;;;;;17.63;9.17;;;;;;;;;;5048666;28;20423;-61
2023/03/22 06:56:02;;;;;;;15.37;7.73;;;;;;;;;;5048956;28;20491;-62
2023/03/22 06:58:28;;;;;;;17.03;7.97;;;;;;;;;;5031921;28;20052;-62
2023/03/22 07:00:56;;;;;;;13.33;7.00;;;;;;;;;;5029324;28;20041;-62
2023/03/22 07:03:23;;;;;;;15.80;7.53;;;;;;;;;;5029032;28;20042;-62
2023/03/22 07:05:49;;;;;;;12.03;6.47;;;;;;;;;;5034529;28;20041;-62
2023/03/22 07:08:15;;;;;;;16.70;7.43;;;;;;;;;;5048143;28;20040;-62
2023/03/22 07:10:42;;;;;;;14.13;7.50;;;;;;;;;;5048304;28;20045;-62
2023/03/22 07:13:08;;;;;;;13.43;6.57;;;;;;;;;;5047768;28;20077;-63
2023/03/22 07:15:35;;;;;;;12.60;7.07;;;;;;;;;;5048761;28;20357;-61
2023/03/22 07:18:01;;;;;;;13.30;6.53;;;;;;;;;;5048272;28;20131;-61
2023/03/22 07:20:28;;;;;;;13.37;5.93;;;;;;;;;;5048867;28;20132;-61
2023/03/22 07:22:54;;;;;;;12.23;6.07;;;;;;;;;;5048434;28;20404;-60
2023/03/22 07:25:20;;;;;;;9.33;6.10;;;;;;;;;;5048175;28;20601;-60
2023/03/22 07:27:46;;;;;;;16.37;5.90;;;;;;;;;;5046722;28;20063;-60
2023/03/22 07:30:12;;;;;;;13.57;6.60;;;;;;;;;;5046561;28;20052;-60
2023/03/22 07:32:40;;;;;;;11.23;5.63;;;;;;;;;;5048536;28;20045;-60
2023/03/22 07:35:06;;;;;;;15.27;5.93;;;;;;;;;;5048274;28;20052;-61
2023/03/22 07:37:32;;;;;;;13.97;5.30;;;;;;;;;;5044215;28;20033;-62
2023/03/22 07:39:58;;;;;;;14.87;5.57;;;;;;;;;;5043971;28;20045;-62
2023/03/22 07:42:25;;;;;;;10.60;4.80;;;;;;;;;;5038023;28;20041;-62
2023/03/22 07:44:51;;;;;;;9.47;5.07;;;;;;;;;;5049211;28;20103;-63
2023/03/22 07:47:17;;;;;;;12.33;5.40;;;;;;;;;;5049094;28;20073;-62
2023/03/22 07:49:43;;;;;;;14.37;5.13;;;;;;;;;;5046240;28;20053;-62
2023/03/22 07:52:09;;;;;;;11.07;5.07;;;;;;;;;;5042466;28;20037;-62
2023/03/22 07:54:35;;;;;;;14.13;5.80;;;;;;;;;;5039698;28;20037;-61
2023/03/22 07:57:01;;;;;;;13.73;5.07;;;;;;;;;;5043390;28;20116;-62
2023/03/22 07:59:27;;;;;;;13.50;4.83;;;;;;;;;;5038621;28;20044;-63
2023/03/22 08:01:53;;;;;;;12.53;5.07;;;;;;;;;;5043425;28;20041;-62
2023/03/22 08:04:21;;;;;;;11.73;5.17;;;;;;;;;;5042453;28;20091;-62
2023/03/22 08:06:47;;;;;;;9.43;4.50;;;;;;;;;;5036595;28;20049;-65
2023/03/22 08:09:14;;;;;;;10.80;4.57;;;;;;;;;;5042104;28;20071;-61
2023/03/22 08:11:40;;;;;;;13.33;4.60;;;;;;;;;;5039216;28;20920;-61
2023/03/22 08:14:07;;;;;;;13.80;5.80;;;;;;;;;;5044151;28;20056;-60
2023/03/22 08:16:34;;;;;;;11.03;4.40;;;;;;;;;;5038568;28;20045;-60
2023/03/22 08:19:00;;;;;;;13.67;3.93;;;;;;;;;;5045375;28;20106;-61
2023/03/22 08:21:26;;;;;;;13.33;4.37;;;;;;;;;;5047080;28;20079;-61
2023/03/22 08:23:53;;;;;;;9.57;4.93;;;;;;;;;;5047087;28;20146;-61
2023/03/22 08:26:19;;;;;;;15.30;4.93;;;;;;;;;;5047458;28;20144;-61
2023/03/22 08:28:45;;;;;;;11.33;4.03;;;;;;;;;;5047126;28;20041;-62
2023/03/22 08:31:15;;;;;;;13.80;4.67;;;;;;;;;;5047796;28;20107;-62
2023/03/22 08:33:42;;;;;;;11.73;4.80;;;;;;;;;;5046244;28;20045;-61
2023/03/22 08:36:09;;;;;;;10.53;3.70;;;;;;;;;;5046415;28;20045;-61
2023/03/22 08:38:35;;;;;;;11.40;4.07;;;;;;;;;;5048419;28;20052;-61
2023/03/22 08:41:02;;;;;;;11.20;4.53;;;;;;;;;;5050188;28;20697;-61
2023/03/22 08:43:28;;;;;;;11.60;3.60;;;;;;;;;;5049715;28;20156;-61
2023/03/22 08:45:54;;;;;;;11.93;3.70;;;;;;;;;;5050365;28;20495;-61
2023/03/22 08:48:20;;;;;;;10.63;3.87;;;;;;;;;;5050203;28;20041;-61
2023/03/22 08:50:46;;;;;;;13.10;4.97;;;;;;;;;;5051246;28;20091;-61
2023/03/22 08:53:12;;;;;;;11.60;4.13;;;;;;;;;;5051432;28;20441;-61
2023/03/22 08:55:43;;;;;;;10.33;3.70;;;;;;;;;;5050958;28;20056;-61
2023/03/22 08:58:10;;;;;;;17.37;3.93;;;;;;;;;;5050883;28;20049;-61
2023/03/22 09:00:37;;;;;;;12.17;3.60;;;;;;;;;;5051093;28;20045;-61
2023/03/22 09:03:04;;;;;;;9.90;3.33;;;;;;;;;;5050607;28;20045;-61
2023/03/22 09:05:30;;;;;;;11.60;3.80;;;;;;;;;;5050777;28;20087;-61
2023/03/22 09:07:56;;;;;;;9.70;3.03;;;;;;;;;;5051181;28;20411;-61
2023/03/22 09:10:22;;;;;;;19.60;3.77;;;;;;;;;;5051199;28;20045;-61
2023/03/22 09:12:48;;;;;;;10.90;2.80;;;;;;;;;;5050510;28;20099;-61
2023/03/22 09:15:14;;;;;;;10.33;3.77;;;;;;;;;;5050073;28;20507;-61
2023/03/22 09:17:40;;;;;;;11.47;4.00;;;;;;;;;;5046248;28;20052;-60
2023/03/22 09:20:06;;;;;;;13.73;3.93;;;;;;;;;;5039550;28;20147;-61
2023/03/22 09:22:32;;;;;;;13.03;3.03;;;;;;;;;;5043170;28;20036;-61
2023/03/22 09:24:58;;;;;;;11.70;3.90;;;;;;;;;;5051027;28;20174;-61
2023/03/22 09:27:25;;;;;;;11.27;3.30;;;;;;;;;;5050182;28;20529;-61
2023/03/22 09:29:52;;;;;;;10.57;3.20;;;;;;;;;;5050757;28;20171;-61
2023/03/22 09:32:18;;;;;;;12.87;3.40;;;;;;;;;;5050200;28;20049;-61
2023/03/22 09:34:44;;;;;;;11.07;3.23;;;;;;;;;;5050227;28;20566;-61
2023/03/22 09:37:11;;;;;;;9.57;2.93;;;;;;;;;;5049866;28;20076;-60
2023/03/22 09:39:38;;;;;;;12.13;3.30;;;;;;;;;;5050197;28;20103;-61
2023/03/22 09:42:06;;;;;;;11.93;3.30;;;;;;;;;;5047299;28;20452;-61
2023/03/22 09:44:39;;;;;;;8.27;3.27;;;;;;;;;;5040189;28;20482;-61
2023/03/22 09:47:06;;;;;;;8.43;2.60;;;;;;;;;;5040742;28;20775;-60
2023/03/22 09:49:35;;;;;;;11.77;3.27;;;;;;;;;;5040233;28;20047;-61
2023/03/22 09:52:01;;;;;;;13.30;3.10;;;;;;;;;;5040683;28;20041;-61
2023/03/22 09:54:32;;;;;;;11.10;3.03;;;;;;;;;;5039009;28;20084;-60
2023/03/22 09:57:01;;;;;;;11.63;3.93;;;;;;;;;;5043981;28;20073;-60
2023/03/22 10:00:10;;;;;;;17.67;3.73;;;;;;;;;;5046720;28;20111;-61
2023/03/22 10:02:42;;;;;;;14.60;3.73;;;;;;;;;;5016658;28;20076;-60
2023/03/22 10:05:14;;;;;;;15.63;3.77;;;;;;;;;;5036184;28;20115;-61
2023/03/22 10:07:40;;;;;;;12.93;3.47;;;;;;;;;;5035289;28;20881;-60
2023/03/22 10:10:17;;;;;;;9.60;3.13;;;;;;;;;;5037448;28;20135;-60
2023/03/22 10:12:51;;;;;;;13.70;3.70;;;;;;;;;;5043968;28;20190;-61
2023/03/22 10:15:20;;;;;;;10.50;3.43;;;;;;;;;;5048219;28;20048;-61
2023/03/22 10:17:50;;;;;;;17.67;4.47;;;;;;;;;;5044878;28;20045;-61
2023/03/22 10:20:52;;;;;;;10.93;2.90;;;;;;;;;;5029789;28;20060;-61
2023/03/22 10:23:30;;;;;;;12.30;3.53;;;;;;;;;;5026592;28;20049;-61
2023/03/22 10:25:57;;;;;;;11.50;3.27;;;;;;;;;;5029140;28;20057;-62
2023/03/22 10:28:26;;;;;;;11.40;3.43;;;;;;;;;;5029514;28;20045;-62
2023/03/22 10:30:54;;;;;;;11.73;3.67;;;;;;;;;;5044941;28;20080;-62
2023/03/22 10:33:30;;;;;;;9.80;2.90;;;;;;;;;;5043240;28;20045;-61
2023/03/22 10:35:57;;;;;;;11.20;3.10;;;;;;;;;;5038977;28;20151;-61
2023/03/22 10:38:24;;;;;;;11.63;3.57;;;;;;;;;;5038533;28;20452;-61
2023/03/22 10:40:52;;;;;;;9.00;3.30;;;;;;;;;;5036654;28;20170;-61
2023/03/22 10:43:25;;;;;;;8.53;2.83;;;;;;;;;;5040078;28;20498;-61
2023/03/22 10:45:52;;;;;;;11.63;3.53;;;;;;;;;;5044401;28;20048;-62
2023/03/22 10:48:31;;;;;;;11.87;2.67;;;;;;;;;;5037967;28;20041;-61
2023/03/22 10:50:58;;;;;;;10.33;2.93;;;;;;;;;;5038428;28;20044;-62
2023/03/22 10:53:28;;;;;;;9.80;2.60;;;;;;;;;;5036527;28;20403;-61
2023/03/22 10:55:54;;;;;;;9.33;2.90;;;;;;;;;;5028929;28;20049;-61
2023/03/22 10:58:21;;;;;;;15.83;4.13;;;;;;;;;;5027731;28;20083;-61
2023/03/22 11:00:48;;;;;;;13.77;3.07;;;;;;;;;;5046929;28;20132;-62
2023/03/22 11:03:26;;;;;;;13.50;3.40;;;;;;;;;;5048457;28;20052;-62
2023/03/22 11:06:11;;;;;;;12.40;3.80;;;;;;;;;;5047075;28;20127;-62
2023/03/22 11:08:40;;;;;;;15.33;4.33;;;;;;;;;;5047093;28;20500;-63
2023/03/22 11:11:07;;;;;;;14.50;3.40;;;;;;;;;;5051031;28;20088;-64
2023/03/22 11:13:35;;;;;;;11.50;3.47;;;;;;;;;;5036026;28;20048;-64
2023/03/22 11:16:02;;;;;;;11.40;3.60;;;;;;;;;;5039018;28;20097;-64
2023/03/22 11:18:30;;;;;;;10.07;4.13;;;;;;;;;;5046160;28;20686;-64
2023/03/22 11:21:03;;;;;;;15.23;4.37;;;;;;;;;;5048850;28;20523;-64
2023/03/22 11:23:31;;;;;;;12.68;4.05;;;;;;;;;;5048680;28;20041;-64
2023/03/22 11:25:59;;;;;;;11.47;3.83;;;;;;;;;;5047283;28;20510;-65
2023/03/22 11:28:28;;;;;;;10.73;4.70;;;;;;;;;;5049045;28;20088;-65
2023/03/22 11:30:59;;;;;;;12.47;4.57;;;;;;;;;;5049105;28;20049;-65
2023/03/22 11:33:25;;;;;;;14.73;5.07;;;;;;;;;;5048558;28;20040;-65
2023/03/22 11:35:55;;;;;;;19.00;6.47;;;;;;;;;;5045503;28;20049;-65
2023/03/22 11:38:36;;;;;;;13.80;4.83;;;;;;;;;;5028811;28;20128;-65
2023/03/22 11:41:04;;;;;;;13.97;5.07;;;;;;;;;;5028960;28;20099;-65
2023/03/22 11:43:42;;;;;;;10.33;4.67;;;;;;;;;;5028709;28;20539;-66
2023/03/22 11:46:09;;;;;;;17.70;4.87;;;;;;;;;;5028535;28;20095;-65
2023/03/22 11:48:35;;;;;;;13.43;4.73;;;;;;;;;;5038579;28;20128;-65
2023/03/22 11:51:09;;;;;;;14.13;5.10;;;;;;;;;;5048558;28;20049;-65
2023/03/22 11:53:37;;;;;;;15.30;5.57;;;;;;;;;;5048359;28;20056;-65
2023/03/22 11:56:06;;;;;;;12.00;5.23;;;;;;;;;;5048549;28;20144;-65
2023/03/22 11:58:43;;;;;;;14.47;5.60;;;;;;;;;;5048402;28;20127;-65
2023/03/22 12:01:15;;;;;;;17.90;6.17;;;;;;;;;;5048701;28;20045;-65
2023/03/22 12:03:42;;;;;;;10.27;5.10;;;;;;;;;;5048247;28;20124;-65
2023/03/22 12:06:18;;;;;;;17.97;6.13;;;;;;;;;;5047308;28;20053;-65
2023/03/22 12:08:59;;;;;;;17.67;6.13;;;;;;;;;;5047892;28;20140;-64
2023/03/22 12:11:34;;;;;;;17.80;6.60;;;;;;;;;;5048228;28;20151;-64
2023/03/22 12:14:03;;;;;;;14.23;6.93;;;;;;;;;;5051573;28;20049;-65
2023/03/22 12:16:32;;;;;;;20.73;6.13;;;;;;;;;;5051742;28;20071;-64
2023/03/22 12:19:01;;;;;;;13.50;5.20;;;;;;;;;;5051522;28;20063;-64
2023/03/22 12:21:28;;;;;;;13.40;5.00;;;;;;;;;;5052077;28;20041;-65
2023/03/22 12:23:56;;;;;;;13.63;4.90;;;;;;;;;;5051897;28;20517;-64
2023/03/22 12:26:27;;;;;;;10.57;5.23;;;;;;;;;;5051672;28;20053;-64
2023/03/22 12:28:59;;;;;;;10.83;5.00;;;;;;;;;;5051910;28;20044;-64
2023/03/22 12:31:29;;;;;;;14.73;4.93;;;;;;;;;;5051395;28;20491;-64
2023/03/22 12:33:57;;;;;;;12.60;5.43;;;;;;;;;;5051484;28;20049;-64
2023/03/22 12:36:29;;;;;;;11.40;4.30;;;;;;;;;;5051004;28;20044;-65
2023/03/22 12:38:57;;;;;;;10.87;4.80;;;;;;;;;;5051229;28;20052;-64
2023/03/22 12:41:34;;;;;;;9.20;4.03;;;;;;;;;;5051456;28;20063;-64
2023/03/22 12:44:03;;;;;;;9.77;4.23;;;;;;;;;;5044871;28;20042;-64
2023/03/22 12:46:33;;;;;;;13.60;4.20;;;;;;;;;;5040843;28;20110;-64
2023/03/22 12:49:05;;;;;;;9.60;4.27;;;;;;;;;;5047607;28;20048;-64
2023/03/22 12:51:31;;;;;;;14.23;5.10;;;;;;;;;;5051356;28;20444;-65
2023/03/22 12:53:58;;;;;;;14.10;5.50;;;;;;;;;;5051042;28;20045;-65
2023/03/22 12:56:31;;;;;;;18.20;6.60;;;;;;;;;;5043735;28;20095;-65
2023/03/22 12:59:01;;;;;;;11.48;5.20;;;;;;;;;;5043167;28;20049;-65
2023/03/22 13:01:33;;;;;;;12.90;6.20;;;;;;;;;;5044276;28;20041;-65
2023/03/22 13:03:59;;;;;;;16.63;6.03;;;;;;;;;;5042966;28;20090;-65
2023/03/22 13:06:33;;;;;;;15.77;6.73;;;;;;;;;;5045390;28;20052;-64
2023/03/22 13:09:08;;;;;;;14.67;6.37;;;;;;;;;;5044832;28;20426;-65
2023/03/22 13:11:35;;;;;;;17.77;7.80;;;;;;;;;;5041217;28;20135;-65
2023/03/22 13:14:01;;;;;;;12.97;7.70;;;;;;;;;;5042507;28;20105;-65
2023/03/22 13:16:50;;;;;;;15.90;6.50;;;;;;;;;;5042226;28;20407;-65
2023/03/22 13:19:18;;;;;;;14.50;5.93;;;;;;;;;;5041701;28;20052;-65
2023/03/22 13:21:48;;;;;;;16.40;6.20;;;;;;;;;;5045574;28;20052;-65
2023/03/22 13:24:15;;;;;;;12.20;6.53;;;;;;;;;;5039667;28;20044;-65
2023/03/22 13:26:46;;;;;;;17.10;6.93;;;;;;;;;;5038909;28;20056;-65
2023/03/22 13:29:23;;;;;;;20.23;6.93;;;;;;;;;;5043652;28;20102;-65
2023/03/22 13:31:57;;;;;;;18.10;7.80;;;;;;;;;;5043305;28;20053;-65
2023/03/22 13:34:32;;;;;;;17.63;7.93;;;;;;;;;;5056203;28;20040;-64
2023/03/22 13:37:00;;;;;;;14.90;7.13;;;;;;;;;;5044714;28;20076;-64
2023/03/22 13:39:31;;;;;;;16.77;7.17;;;;;;;;;;5048948;28;20071;-65
2023/03/22 13:42:03;;;;;;;11.03;6.50;;;;;;;;;;5050743;28;20094;-64
2023/03/22 13:44:30;;;;;;;20.60;7.50;;;;;;;;;;5046489;28;20500;-65
2023/03/22 13:47:00;;;;;;;15.50;6.77;;;;;;;;;;5030566;28;20049;-65
2023/03/22 13:49:43;;;;;;;10.27;5.97;;;;;;;;;;5069376;28;20053;-65
2023/03/22 13:52:21;;;;;;;12.20;6.30;;;;;;;;;;5056711;28;20124;-65
2023/03/22 13:54:51;;;;;;;14.77;6.53;;;;;;;;;;5049703;28;20073;-65
2023/03/22 13:57:37;;;;;;;19.67;6.90;;;;;;;;;;5049748;28;20051;-66
2023/03/22 14:00:17;;;;;;;17.00;7.13;;;;;;;;;;5050123;28;20453;-65
2023/03/22 14:02:44;;;;;;;17.80;7.07;;;;;;;;;;5046584;28;20059;-65
2023/03/22 14:05:13;;;;;;;16.00;6.77;;;;;;;;;;5038510;28;20044;-65
2023/03/22 14:07:51;;;;;;;11.73;6.43;;;;;;;;;;5038739;28;20061;-65
2023/03/22 14:10:17;;;;;;;15.17;6.23;;;;;;;;;;5038620;28;20052;-65
2023/03/22 14:12:46;;;;;;;19.33;7.20;;;;;;;;;;5038058;28;20045;-65
2023/03/22 14:15:15;;;;;;;12.90;6.53;;;;;;;;;;5041603;28;20457;-65
2023/03/22 14:18:00;;;;;;;13.53;5.57;;;;;;;;;;5040400;28;20081;-65
2023/03/22 14:20:29;;;;;;;16.30;7.07;;;;;;;;;;5042568;28;20057;-65
2023/03/22 14:23:08;;;;;;;12.90;6.57;;;;;;;;;;5046944;28;20044;-65
2023/03/22 14:25:35;;;;;;;17.13;6.90;;;;;;;;;;5047360;28;20119;-65
2023/03/22 14:28:02;;;;;;;16.07;6.80;;;;;;;;;;5046913;28;20072;-65
2023/03/22 14:30:31;;;;;;;14.77;7.13;;;;;;;;;;5046595;28;20410;-65
2023/03/22 14:33:01;;;;;;;13.93;5.87;;;;;;;;;;5048028;28;20499;-65
2023/03/22 14:35:32;;;;;;;18.27;6.87;;;;;;;;;;5048161;28;20048;-65
2023/03/22 14:38:02;;;;;;;10.53;5.70;;;;;;;;;;5045659;28;20844;-65